Time;durP1;ratioP1;P1;durP2;ratioP2;P2;SDS_P1;SDS_P2;PMS_P1;PMS_P2;Temp;Humidity;BMP_temperature;BMP_pressure;BME280_temperature;BME280_humidity;BME280_pressure;Samples;Min_cycle;Max_cycle;Signal;HPM_P1;HPM_P2
2024/03/03 00:00:47;;;;;;;83.00;37.65;;;;;;;;;;4915193;29;20044;-95
2024/03/03 00:03:13;;;;;;;85.00;37.47;;;;;;;;;;4916658;29;20092;-94
2024/03/03 00:05:39;;;;;;;84.85;37.08;;;;;;;;;;4903544;29;20028;-93
2024/03/03 00:10:47;;;;;;;89.63;37.50;;;;;;;;;;5037934;23;20063;-94
2024/03/03 00:16:23;;;;;;;93.70;38.88;;;;;;;;;;5250997;23;20528;-94
2024/03/03 00:18:54;;;;;;;;;;;;;;;;;;4949519;29;20020;-94
2024/03/03 00:32:51;;;;;;;91.28;37.97;;;;;;;;;;5197275;23;20073;-95
2024/03/03 00:41:20;;;;;;;91.32;37.08;;;;;;;;;;5024994;23;20068;-95
2024/03/03 00:47:01;;;;;;;95.93;38.00;;;;;;;;;;4936046;29;20039;-94
2024/03/03 00:49:27;;;;;;;96.55;39.40;;;;;;;;;;4930710;29;20039;-93
2024/03/03 00:51:56;;;;;;;104.22;40.72;;;;;;;;;;4933927;29;20032;-94
2024/03/03 00:54:22;;;;;;;118.95;42.70;;;;;;;;;;4930940;29;20027;-93
2024/03/03 00:56:49;;;;;;;102.25;40.95;;;;;;;;;;4930188;29;20036;-94
2024/03/03 00:59:25;;;;;;;112.93;42.55;;;;;;;;;;4931745;29;20043;-96
2024/03/03 01:01:59;;;;;;;112.68;43.42;;;;;;;;;;4939069;29;20028;-93
2024/03/03 01:07:25;;;;;;;105.82;40.83;;;;;;;;;;4936852;29;20040;-93
2024/03/03 01:09:51;;;;;;;106.75;40.58;;;;;;;;;;4936676;29;20092;-94
2024/03/03 01:15:30;;;;;;;105.68;40.05;;;;;;;;;;4939056;29;20043;-94
2024/03/03 01:26:23;;;;;;;95.93;40.13;;;;;;;;;;5106301;23;20079;-95
2024/03/03 01:28:54;;;;;;;108.95;39.38;;;;;;;;;;4948903;29;20047;-95
2024/03/03 01:34:54;;;;;;;106.78;41.28;;;;;;;;;;4898991;29;20067;-96
2024/03/03 01:37:20;;;;;;;116.20;43.13;;;;;;;;;;4885164;29;20017;-94
2024/03/03 01:39:47;;;;;;;114.28;42.15;;;;;;;;;;4883532;29;20402;-95
2024/03/03 01:42:14;;;;;;;113.68;42.85;;;;;;;;;;4879071;29;20037;-94
2024/03/03 01:45:02;;;;;;;116.90;43.65;;;;;;;;;;4863389;29;20042;-96
2024/03/03 01:47:39;;;;;;;115.63;43.97;;;;;;;;;;4875503;29;20029;-96
2024/03/03 01:50:06;;;;;;;118.45;41.75;;;;;;;;;;5066349;23;20056;-94
2024/03/03 01:52:42;;;;;;;108.97;42.10;;;;;;;;;;4962171;28;20015;-94
2024/03/03 01:55:09;;;;;;;103.28;41.08;;;;;;;;;;5013183;23;20063;-95
2024/03/03 01:57:52;;;;;;;108.97;41.83;;;;;;;;;;4950795;29;20068;-95
2024/03/03 02:00:25;;;;;;;105.60;41.17;;;;;;;;;;4951208;29;20042;-95
2024/03/03 02:03:04;;;;;;;105.63;40.38;;;;;;;;;;4953322;28;20028;-95
2024/03/03 02:19:17;;;;;;;105.95;42.38;;;;;;;;;;4972373;23;20063;-95
2024/03/03 02:21:45;;;;;;;106.57;42.88;;;;;;;;;;4922899;28;20031;-96
2024/03/03 02:24:45;;;;;;;106.75;41.72;;;;;;;;;;5263989;23;20035;-95
2024/03/03 02:27:14;;;;;;;101.95;41.28;;;;;;;;;;4951312;28;20128;-95
2024/03/03 02:32:21;;;;;;;106.00;43.67;;;;;;;;;;4932914;29;20055;-95
2024/03/03 02:34:47;;;;;;;107.35;42.00;;;;;;;;;;4937656;29;20035;-95
2024/03/03 02:37:13;;;;;;;104.05;42.35;;;;;;;;;;4934372;29;20032;-96
2024/03/03 02:42:29;;;;;;;100.00;41.25;;;;;;;;;;4937885;28;20031;-94
2024/03/03 02:45:10;;;;;;;100.03;40.47;;;;;;;;;;4919679;29;20043;-92
2024/03/03 02:50:58;;;;;;;96.75;40.85;;;;;;;;;;4881618;29;20029;-93
2024/03/03 02:53:26;;;;;;;91.47;41.25;;;;;;;;;;4874493;29;20045;-95
2024/03/03 02:56:23;;;;;;;88.22;40.63;;;;;;;;;;4861894;29;20061;-94
2024/03/03 02:59:18;;;;;;;98.30;39.20;;;;;;;;;;4863735;29;20031;-95
2024/03/03 03:01:47;;;;;;;109.30;41.95;;;;;;;;;;4847613;29;20053;-95
2024/03/03 03:04:48;;;;;;;;;;;;;;;;;;;;;
2024/03/03 03:07:14;;;;;;;96.93;39.60;;;;;;;;;;4879551;29;20049;-94
2024/03/03 03:12:20;;;;;;;87.75;38.28;;;;;;;;;;4954529;29;20024;-93
2024/03/03 03:17:28;;;;;;;89.50;38.95;;;;;;;;;;4993089;23;20051;-95
2024/03/03 03:25:55;;;;;;;81.78;36.70;;;;;;;;;;4954210;28;20039;-93
2024/03/03 03:28:21;;;;;;;94.05;38.67;;;;;;;;;;4939446;28;20047;-94
2024/03/03 03:38:40;;;;;;;79.72;38.17;;;;;;;;;;5097634;23;20091;-92
2024/03/03 03:44:14;;;;;;;90.30;37.72;;;;;;;;;;5112645;23;20059;-96
2024/03/03 03:46:43;;;;;;;76.38;36.97;;;;;;;;;;5133330;23;20057;-94
2024/03/03 03:54:24;;;;;;;83.78;38.42;;;;;;;;;;4933662;29;20051;-95
2024/03/03 03:57:20;;;;;;;74.28;35.80;;;;;;;;;;4933195;29;20040;-93
2024/03/03 03:59:52;;;;;;;77.60;35.55;;;;;;;;;;4945183;29;20044;-95
2024/03/03 04:02:46;;;;;;;81.53;36.72;;;;;;;;;;4936778;29;20034;-93
2024/03/03 04:05:14;;;;;;;;;;;;;;;;;;4933000;29;20024;-95
2024/03/03 04:07:40;;;;;;;72.88;35.05;;;;;;;;;;4921176;29;19919;-93
2024/03/03 04:10:18;;;;;;;75.72;34.45;;;;;;;;;;4927252;29;20036;-94
2024/03/03 04:13:03;;;;;;;74.28;35.63;;;;;;;;;;4935387;29;20090;-95
2024/03/03 04:15:38;;;;;;;76.38;36.42;;;;;;;;;;4937221;29;20040;-95
2024/03/03 04:18:33;;;;;;;75.03;35.75;;;;;;;;;;4936572;29;20011;-94
2024/03/03 04:21:01;;;;;;;73.65;36.00;;;;;;;;;;4950250;29;20038;-93
2024/03/03 04:24:04;;;;;;;70.10;34.90;;;;;;;;;;4931746;29;20123;-93
2024/03/03 04:26:33;;;;;;;73.05;34.75;;;;;;;;;;4913814;29;20027;-92
2024/03/03 04:29:25;;;;;;;87.72;38.35;;;;;;;;;;4902101;29;20079;-93
2024/03/03 04:32:01;;;;;;;70.35;34.80;;;;;;;;;;4896989;29;20561;-93
2024/03/03 04:34:39;;;;;;;66.35;34.55;;;;;;;;;;4914997;29;20106;-94
2024/03/03 04:37:20;;;;;;;74.90;36.58;;;;;;;;;;4898781;29;20074;-95
2024/03/03 04:39:47;;;;;;;68.25;33.90;;;;;;;;;;4889580;29;20040;-93
2024/03/03 04:42:16;;;;;;;70.55;35.13;;;;;;;;;;4910248;29;20091;-96
2024/03/03 04:45:03;;;;;;;63.53;33.30;;;;;;;;;;5022774;23;20060;-94
2024/03/03 04:50:58;;;;;;;68.07;34.40;;;;;;;;;;5349294;23;20099;-96
2024/03/03 04:56:32;;;;;;;63.40;33.65;;;;;;;;;;4941465;29;20477;-95
2024/03/03 05:15:22;;;;;;;66.82;34.65;;;;;;;;;;5124638;23;20059;-95
2024/03/03 05:23:44;;;;;;;66.68;34.60;;;;;;;;;;4939302;29;20073;-95
2024/03/03 05:26:23;;;;;;;71.15;36.10;;;;;;;;;;4918547;29;20051;-94
2024/03/03 05:31:41;;;;;;;69.22;36.47;;;;;;;;;;5491437;23;20036;-94
2024/03/03 05:34:43;;;;;;;72.72;34.35;;;;;;;;;;4936405;29;20012;-93
2024/03/03 05:47:54;;;;;;;74.47;37.95;;;;;;;;;;4951041;29;20139;-95
2024/03/03 05:50:22;;;;;;;63.38;35.97;;;;;;;;;;4937569;29;20024;-95
2024/03/03 05:55:19;;;;;;;64.72;34.67;;;;;;;;;;5207144;23;20047;-96
2024/03/03 06:00:50;;;;;;;64.38;35.75;;;;;;;;;;4954491;29;20058;-95
2024/03/03 06:06:17;;;;;;;66.20;36.72;;;;;;;;;;5208154;23;20072;-95
2024/03/03 06:09:18;;;;;;;58.65;33.92;;;;;;;;;;4981250;23;20088;-95
2024/03/03 06:11:48;;;;;;;52.50;37.42;;;;;;;;;;4919769;23;20229;31
2024/03/03 06:14:49;;;;;;;51.78;37.53;;;;;;;;;;4899499;29;20049;-95
2024/03/03 06:17:37;;;;;;;52.30;37.10;;;;;;;;;;5080097;23;20784;-95
2024/03/03 06:30:47;;;;;;;42.35;30.65;;;;;;;;;;4934720;29;20277;-96
2024/03/03 06:33:47;;;;;;;39.80;28.23;;;;;;;;;;4921166;29;20099;-94
2024/03/03 06:36:49;;;;;;;38.58;26.70;;;;;;;;;;4920223;29;20044;-96
2024/03/03 06:39:15;;;;;;;37.38;26.40;;;;;;;;;;4880669;29;20045;-93
2024/03/03 06:41:45;;;;;;;39.40;32.88;;;;;;;;;;4902540;29;20040;-95
2024/03/03 06:44:29;;;;;;;41.00;33.40;;;;;;;;;;4906443;29;20048;-94
2024/03/03 06:47:08;;;;;;;;;;;;;;;;;;;;;
2024/03/03 07:03:04;;;;;;;39.05;35.05;;;;;;;;;;4981722;23;20044;-95
2024/03/03 07:05:32;;;;;;;38.38;34.22;;;;;;;;;;4946307;29;20020;-95
2024/03/03 07:11:00;;;;;;;;;;;;;;;;;;;;;
2024/03/03 07:13:27;;;;;;;47.90;43.30;;;;;;;;;;4952458;28;20093;-94
2024/03/03 07:16:00;;;;;;;43.58;39.47;;;;;;;;;;4934534;29;20032;-96
2024/03/03 07:21:12;;;;;;;49.55;44.78;;;;;;;;;;4916390;29;19986;-95
2024/03/03 07:23:54;;;;;;;42.15;38.25;;;;;;;;;;4912306;29;20035;-96
2024/03/03 07:26:47;;;;;;;43.70;39.53;;;;;;;;;;4915515;29;20032;-95
2024/03/03 07:29:47;;;;;;;44.20;40.00;;;;;;;;;;4933238;29;20036;-94
2024/03/03 07:32:16;;;;;;;39.92;36.28;;;;;;;;;;4921805;29;20093;-95
2024/03/03 07:34:49;;;;;;;36.70;33.30;;;;;;;;;;4933604;29;20031;-96
2024/03/03 07:40:33;;;;;;;40.63;37.03;;;;;;;;;;4887253;29;20184;-95
2024/03/03 07:43:00;;;;;;;36.22;32.78;;;;;;;;;;4892049;29;20036;-95
2024/03/03 07:45:30;;;;;;;36.35;32.95;;;;;;;;;;5014189;23;20051;-95
2024/03/03 07:47:59;;;;;;;37.05;33.72;;;;;;;;;;4949292;29;20067;-96
2024/03/03 07:50:29;;;;;;;38.05;34.45;;;;;;;;;;4950547;29;20032;-94
2024/03/03 07:53:00;;;;;;;39.90;36.25;;;;;;;;;;4949235;29;20066;-94
2024/03/03 07:55:29;;;;;;;37.85;34.50;;;;;;;;;;4951549;29;20023;-94
2024/03/03 07:57:55;;;;;;;37.90;34.58;;;;;;;;;;4950895;29;20035;-93
2024/03/03 08:00:21;;;;;;;32.25;29.25;;;;;;;;;;4933300;29;20044;-95
2024/03/03 08:02:51;;;;;;;30.42;27.55;;;;;;;;;;5218113;23;20474;-93
2024/03/03 08:05:29;;;;;;;34.08;30.90;;;;;;;;;;4910287;29;20037;-95
2024/03/03 08:07:57;;;;;;;29.98;26.90;;;;;;;;;;4893946;29;20045;-95
2024/03/03 08:10:46;;;;;;;30.90;28.02;;;;;;;;;;4892841;29;20033;-95
2024/03/03 08:13:13;;;;;;;26.65;24.05;;;;;;;;;;4890506;29;20123;-95
2024/03/03 08:18:16;;;;;;;28.05;25.50;;;;;;;;;;5026682;23;20079;-94
2024/03/03 08:20:44;;;;;;;31.27;28.33;;;;;;;;;;4959786;28;20118;-94
2024/03/03 08:23:25;;;;;;;27.33;24.80;;;;;;;;;;4908944;23;2260858;-91
2024/03/03 08:25:51;;;;;;;24.25;21.85;;;;;;;;;;4938288;29;20016;-94
2024/03/03 08:31:46;;;;;;;26.35;23.95;;;;;;;;;;4951846;29;20043;-93
2024/03/03 08:34:15;;;;;;;25.38;23.15;;;;;;;;;;4930642;28;20039;-94
2024/03/03 08:39:48;;;;;;;29.27;26.67;;;;;;;;;;4957536;28;20087;-93
2024/03/03 08:42:22;;;;;;;27.40;24.90;;;;;;;;;;4935333;29;20038;-92
2024/03/03 08:44:48;;;;;;;30.08;27.55;;;;;;;;;;4936025;29;20032;-94
2024/03/03 08:47:17;;;;;;;24.50;21.90;;;;;;;;;;4956031;29;20035;-94
2024/03/03 08:50:00;;;;;;;27.30;24.75;;;;;;;;;;4938605;29;20036;-94
2024/03/03 08:52:26;;;;;;;26.23;23.85;;;;;;;;;;4936877;29;20059;-93
2024/03/03 08:55:08;;;;;;;28.77;26.38;;;;;;;;;;4936042;29;20058;-94
2024/03/03 08:57:38;;;;;;;24.10;21.88;;;;;;;;;;4899390;29;20036;-95
2024/03/03 09:00:22;;;;;;;25.50;23.10;;;;;;;;;;4937468;29;20032;-93
2024/03/03 09:02:53;;;;;;;24.60;22.27;;;;;;;;;;4935957;29;20031;-95
2024/03/03 09:05:20;;;;;;;23.52;21.42;;;;;;;;;;4936893;29;20035;-94
2024/03/03 09:07:53;;;;;;;20.02;18.13;;;;;;;;;;4936262;29;20038;-94
2024/03/03 09:13:21;;;;;;;23.75;21.63;;;;;;;;;;4947140;29;20504;-94
2024/03/03 09:16:02;;;;;;;26.20;24.00;;;;;;;;;;4944961;29;20047;-93
2024/03/03 09:18:28;;;;;;;22.83;20.93;;;;;;;;;;4927967;29;20111;-95
2024/03/03 09:21:18;;;;;;;23.45;21.15;;;;;;;;;;4926642;29;20485;-92
2024/03/03 09:23:52;;;;;;;26.92;24.63;;;;;;;;;;4925404;29;20052;-93
2024/03/03 09:26:18;;;;;;;22.48;20.25;;;;;;;;;;4932317;29;20036;-94
2024/03/03 09:28:44;;;;;;;23.10;21.10;;;;;;;;;;4932373;29;20051;-94
2024/03/03 09:31:13;;;;;;;22.95;20.75;;;;;;;;;;4933319;29;20032;-93
2024/03/03 09:33:43;;;;;;;22.77;20.88;;;;;;;;;;4932823;29;20035;-94
2024/03/03 09:36:14;;;;;;;24.52;22.42;;;;;;;;;;4935024;29;20817;-93
2024/03/03 09:38:41;;;;;;;25.40;23.40;;;;;;;;;;4933790;29;20087;-93
2024/03/03 09:47:33;;;;;;;29.77;27.40;;;;;;;;;;4954397;29;20050;-92
2024/03/03 09:53:08;;;;;;;32.25;29.83;;;;;;;;;;4956184;28;20100;-94
2024/03/03 09:56:01;;;;;;;30.37;27.67;;;;;;;;;;4890701;29;20013;-96
2024/03/03 09:59:01;;;;;;;27.98;25.77;;;;;;;;;;4886300;29;20065;-95
2024/03/03 10:05:00;;;;;;;41.13;38.10;;;;;;;;;;5338896;23;20057;-95
2024/03/03 10:07:45;;;;;;;34.72;32.10;;;;;;;;;;4949675;29;20016;-93
2024/03/03 10:10:19;;;;;;;33.40;30.92;;;;;;;;;;4939588;28;20032;-94
2024/03/03 10:13:05;;;;;;;30.83;28.80;;;;;;;;;;4937687;29;20040;-94
2024/03/03 10:15:59;;;;;;;37.90;35.33;;;;;;;;;;4943121;23;20052;-93
2024/03/03 10:19:08;;;;;;;43.55;40.70;;;;;;;;;;4973184;23;20497;-94
2024/03/03 10:21:36;;;;;;;42.85;39.83;;;;;;;;;;4915864;29;20050;-95
2024/03/03 10:24:25;;;;;;;35.75;32.78;;;;;;;;;;4918655;29;20020;-94
2024/03/03 10:27:02;;;;;;;35.72;32.92;;;;;;;;;;4935395;29;20040;-96
2024/03/03 10:29:42;;;;;;;36.45;33.45;;;;;;;;;;4920754;29;20055;-94
2024/03/03 10:32:54;;;;;;;34.05;31.35;;;;;;;;;;4923931;29;20032;-94
2024/03/03 10:35:36;;;;;;;34.22;31.23;;;;;;;;;;4922510;29;20095;-96
2024/03/03 10:38:05;;;;;;;26.17;23.75;;;;;;;;;;4920402;29;20096;-93
2024/03/03 10:40:41;;;;;;;31.63;29.08;;;;;;;;;;4923532;29;20012;-92
2024/03/03 10:43:07;;;;;;;26.92;24.75;;;;;;;;;;4918054;29;20096;-94
2024/03/03 10:45:35;;;;;;;26.35;24.13;;;;;;;;;;4908270;29;20011;-93
2024/03/03 10:51:21;;;;;;;26.17;23.88;;;;;;;;;;4939834;29;20039;-95
2024/03/03 10:54:03;;;;;;;28.75;26.42;;;;;;;;;;4917662;29;20035;-94
2024/03/03 10:56:36;;;;;;;28.92;26.73;;;;;;;;;;4901119;29;20127;-94
2024/03/03 10:59:14;;;;;;;;;;;;;;;;;;4902612;29;20012;-93
2024/03/03 11:02:03;;;;;;;24.13;21.90;;;;;;;;;;4917038;29;19963;-96
2024/03/03 11:04:36;;;;;;;25.42;23.25;;;;;;;;;;4911353;29;20450;-94
2024/03/03 11:07:09;;;;;;;25.50;23.38;;;;;;;;;;4921944;29;20075;-93
2024/03/03 11:09:36;;;;;;;28.58;26.10;;;;;;;;;;4919957;29;20032;-95
2024/03/03 11:12:30;;;;;;;24.05;22.17;;;;;;;;;;4921079;29;20070;-94
2024/03/03 11:14:57;;;;;;;;;;;;;;;;;;5050331;23;20047;-92
2024/03/03 11:30:57;;;;;;;18.67;17.48;;;;;;;;;;5181862;23;20050;-93
2024/03/03 11:36:20;;;;;;;16.63;15.52;;;;;;;;;;6015692;23;20100;-93
2024/03/03 11:39:13;;;;;;;19.55;18.05;;;;;;;;;;4914520;29;20053;-93
2024/03/03 11:42:05;;;;;;;22.60;21.27;;;;;;;;;;4933579;29;20039;-93
2024/03/03 11:44:58;;;;;;;24.00;22.45;;;;;;;;;;4914070;29;20017;-95
2024/03/03 11:47:49;;;;;;;23.73;22.23;;;;;;;;;;4937221;29;20079;-96
2024/03/03 11:50:19;;;;;;;20.17;19.02;;;;;;;;;;4914065;29;20131;-96
2024/03/03 11:52:57;;;;;;;23.75;22.33;;;;;;;;;;4914838;29;20028;-94
2024/03/03 11:55:26;;;;;;;18.85;17.65;;;;;;;;;;4959675;23;20071;-93
2024/03/03 12:01:22;;;;;;;19.92;18.70;;;;;;;;;;4911780;29;20096;-93
2024/03/03 12:06:52;;;;;;;18.67;17.58;;;;;;;;;;4917454;29;20039;-95
2024/03/03 12:09:22;;;;;;;13.52;12.68;;;;;;;;;;4952571;23;20063;-96
2024/03/03 12:23:51;;;;;;;17.50;16.40;;;;;;;;;;4952465;29;20042;-93
2024/03/03 12:26:20;;;;;;;17.33;16.23;;;;;;;;;;4934054;29;20082;-94
2024/03/03 12:28:54;;;;;;;16.98;15.80;;;;;;;;;;4930316;29;20055;-95
2024/03/03 12:31:45;;;;;;;28.13;26.48;;;;;;;;;;4953290;28;20036;-95
2024/03/03 12:34:39;;;;;;;21.98;20.58;;;;;;;;;;4951387;29;20098;-95
2024/03/03 12:37:20;;;;;;;20.17;18.65;;;;;;;;;;4943912;28;20024;-95
2024/03/03 12:39:48;;;;;;;16.42;15.32;;;;;;;;;;4937448;29;20501;-93
2024/03/03 12:42:14;;;;;;;18.52;17.33;;;;;;;;;;4956974;28;20027;-96
2024/03/03 12:44:41;;;;;;;13.05;12.15;;;;;;;;;;4931083;29;20024;-94
2024/03/03 12:47:14;;;;;;;18.38;17.17;;;;;;;;;;4918930;29;20032;-94
2024/03/03 12:49:44;;;;;;;21.58;20.27;;;;;;;;;;4937716;29;20075;-96
2024/03/03 12:52:16;;;;;;;23.45;22.05;;;;;;;;;;4951152;29;20118;-94
2024/03/03 12:54:44;;;;;;;14.65;13.68;;;;;;;;;;4934008;29;20028;-91
2024/03/03 12:57:16;;;;;;;21.35;20.05;;;;;;;;;;4936243;29;20108;-93
2024/03/03 12:59:46;;;;;;;17.90;16.80;;;;;;;;;;4950565;29;20030;-96
2024/03/03 13:02:26;;;;;;;16.65;15.55;;;;;;;;;;4964445;28;20024;-93
2024/03/03 13:05:00;;;;;;;20.80;19.20;;;;;;;;;;4934862;29;20509;-94
2024/03/03 13:07:27;;;;;;;29.83;28.05;;;;;;;;;;4933514;29;20047;-93
2024/03/03 13:09:56;;;;;;;24.08;22.58;;;;;;;;;;4936243;29;20055;-95
2024/03/03 13:12:24;;;;;;;24.77;23.38;;;;;;;;;;4926843;29;20096;-93
2024/03/03 13:14:57;;;;;;;16.75;15.55;;;;;;;;;;4934019;29;20036;-94
2024/03/03 13:17:26;;;;;;;27.95;26.27;;;;;;;;;;4935598;29;20032;-94
2024/03/03 13:19:54;;;;;;;17.73;16.73;;;;;;;;;;4935861;29;20047;-95
2024/03/03 13:22:32;;;;;;;20.90;19.65;;;;;;;;;;4933998;29;20034;-94
2024/03/03 13:25:02;;;;;;;17.45;16.42;;;;;;;;;;4934194;29;20072;-94
2024/03/03 13:30:42;;;;;;;18.05;16.98;;;;;;;;;;5180932;23;20425;-95
2024/03/03 13:33:36;;;;;;;17.13;15.93;;;;;;;;;;4933579;29;20042;-93
2024/03/03 13:36:12;;;;;;;14.70;13.80;;;;;;;;;;4942247;29;20477;-95
2024/03/03 13:38:44;;;;;;;15.30;14.40;;;;;;;;;;4933360;29;20036;-93
2024/03/03 13:41:14;;;;;;;26.73;25.23;;;;;;;;;;4924460;29;20104;-92
2024/03/03 13:43:41;;;;;;;24.58;23.15;;;;;;;;;;4899608;29;20021;-94
2024/03/03 13:46:07;;;;;;;15.07;14.00;;;;;;;;;;4899073;29;20029;-94
2024/03/03 13:48:36;;;;;;;17.70;16.50;;;;;;;;;;4898051;29;20131;-94
2024/03/03 13:51:06;;;;;;;25.13;23.73;;;;;;;;;;4913623;29;20032;-95
2024/03/03 13:53:33;;;;;;;24.52;22.88;;;;;;;;;;4926465;29;20045;-94
2024/03/03 13:56:01;;;;;;;18.23;16.52;;;;;;;;;;4912346;29;20028;-94
2024/03/03 13:58:28;;;;;;;24.85;23.42;;;;;;;;;;4914805;29;20115;-91
2024/03/03 14:00:54;;;;;;;27.58;26.05;;;;;;;;;;4898972;29;20033;-92
2024/03/03 14:03:30;;;;;;;25.75;24.23;;;;;;;;;;4911704;29;20032;-94
2024/03/03 14:05:56;;;;;;;26.33;24.75;;;;;;;;;;4916421;29;20032;-93
2024/03/03 14:08:22;;;;;;;26.95;25.38;;;;;;;;;;4913850;29;20099;-92
2024/03/03 14:13:52;;;;;;;26.38;24.88;;;;;;;;;;4927557;29;20043;-93
2024/03/03 14:16:20;;;;;;;27.65;25.95;;;;;;;;;;4919157;29;20123;-92
2024/03/03 14:18:46;;;;;;;22.83;21.52;;;;;;;;;;4923949;29;20028;-92
2024/03/03 14:21:15;;;;;;;16.00;15.05;;;;;;;;;;4913543;29;20070;-94
2024/03/03 14:24:05;;;;;;;22.10;20.50;;;;;;;;;;4914258;29;20055;-93
2024/03/03 14:26:32;;;;;;;22.70;21.42;;;;;;;;;;4923002;29;20254;-94
2024/03/03 14:28:58;;;;;;;19.27;18.17;;;;;;;;;;4910342;29;20044;-94
2024/03/03 14:31:30;;;;;;;18.15;16.95;;;;;;;;;;4881205;29;20053;-94
2024/03/03 14:33:57;;;;;;;23.85;22.45;;;;;;;;;;4917371;29;20021;-93
2024/03/03 14:36:23;;;;;;;13.45;12.65;;;;;;;;;;5008021;23;20127;-94
2024/03/03 14:38:51;;;;;;;17.80;16.58;;;;;;;;;;4921944;29;20028;-93
2024/03/03 14:41:17;;;;;;;20.67;19.38;;;;;;;;;;4933836;29;20020;-94
2024/03/03 14:43:57;;;;;;;23.20;21.77;;;;;;;;;;4933268;29;20021;-95
2024/03/03 14:46:45;;;;;;;21.95;20.48;;;;;;;;;;4935516;29;20096;-94
2024/03/03 14:49:14;;;;;;;22.13;20.60;;;;;;;;;;4904865;29;20119;-93
2024/03/03 15:07:24;;;;;;;22.83;21.38;;;;;;;;;;5009508;23;20106;-92
2024/03/03 15:10:06;;;;;;;25.63;24.15;;;;;;;;;;4940377;29;20020;-94
2024/03/03 15:12:35;;;;;;;24.63;23.13;;;;;;;;;;5078124;23;20094;-95
2024/03/03 15:15:02;;;;;;;25.35;23.83;;;;;;;;;;4938752;29;20047;-94
2024/03/03 15:17:28;;;;;;;27.90;26.30;;;;;;;;;;4988854;23;20059;-95
2024/03/03 15:20:04;;;;;;;23.40;22.02;;;;;;;;;;5032832;23;20082;-94
2024/03/03 15:27:52;;;;;;;21.92;20.52;;;;;;;;;;4936344;29;20051;-95
2024/03/03 15:30:25;;;;;;;22.98;21.63;;;;;;;;;;4936817;29;20044;-95
2024/03/03 15:33:29;;;;;;;29.88;28.13;;;;;;;;;;5017385;23;20059;-93
2024/03/03 15:36:03;;;;;;;27.23;25.17;;;;;;;;;;5038602;23;20059;-93
2024/03/03 15:38:47;;;;;;;28.83;27.08;;;;;;;;;;4975143;23;20055;-94
2024/03/03 15:41:35;;;;;;;29.52;27.65;;;;;;;;;;4954681;28;20059;-94
2024/03/03 15:44:03;;;;;;;28.02;26.27;;;;;;;;;;4950139;28;20024;-92
2024/03/03 15:46:38;;;;;;;21.85;20.58;;;;;;;;;;4938503;29;20036;-94
2024/03/03 15:52:05;;;;;;;28.33;26.73;;;;;;;;;;5058936;23;20062;-95
2024/03/03 15:57:49;;;;;;;29.08;27.17;;;;;;;;;;4934122;29;20043;-94
2024/03/03 16:05:22;;;;;;;29.27;27.50;;;;;;;;;;4933945;29;20028;-94
2024/03/03 16:23:38;;;;;;;57.72;54.58;;;;;;;;;;5001379;23;19913;-95
2024/03/03 16:26:05;;;;;;;85.90;81.47;;;;;;;;;;4937794;29;20040;-95
2024/03/03 16:31:13;;;;;;;74.85;70.90;;;;;;;;;;5040760;23;20075;-95
2024/03/03 16:36:37;;;;;;;88.68;83.50;;;;;;;;;;5014050;23;20046;-96
2024/03/03 16:41:34;;;;;;;83.13;78.68;;;;;;;;;;4958584;28;20023;-95
2024/03/03 16:44:01;;;;;;;80.57;76.35;;;;;;;;;;4950316;28;20039;-94
2024/03/03 16:46:29;;;;;;;78.25;73.90;;;;;;;;;;4977527;28;20027;-95
2024/03/03 16:49:11;;;;;;;82.95;78.68;;;;;;;;;;5020239;23;20043;-95
2024/03/03 16:51:37;;;;;;;82.13;77.60;;;;;;;;;;4940012;29;20503;-95
2024/03/03 16:54:31;;;;;;;94.35;89.40;;;;;;;;;;4955329;29;20092;-95
2024/03/03 16:59:33;;;;;;;70.28;66.47;;;;;;;;;;4935183;29;20040;-94
2024/03/03 17:02:14;;;;;;;87.05;82.53;;;;;;;;;;5092288;23;20116;-94
2024/03/03 17:04:41;;;;;;;78.55;74.32;;;;;;;;;;4920700;29;20055;-95
2024/03/03 17:07:11;;;;;;;89.82;84.93;;;;;;;;;;4926301;29;20028;-95
2024/03/03 17:09:37;;;;;;;79.00;74.65;;;;;;;;;;4908003;29;20036;-93
2024/03/03 17:12:03;;;;;;;77.78;73.53;;;;;;;;;;4925315;29;20034;-96
2024/03/03 17:14:29;;;;;;;75.25;71.13;;;;;;;;;;4914213;29;20072;-95
2024/03/03 17:20:00;;;;;;;76.20;72.03;;;;;;;;;;5353214;23;20087;-94
2024/03/03 17:22:30;;;;;;;69.15;65.45;;;;;;;;;;5089191;23;20120;-94
2024/03/03 17:30:33;;;;;;;52.97;49.80;;;;;;;;;;5064560;23;20032;-95
2024/03/03 17:35:41;;;;;;;58.05;54.85;;;;;;;;;;5074913;23;20052;-95
2024/03/03 17:38:07;;;;;;;46.50;43.83;;;;;;;;;;4941271;29;20083;-94
2024/03/03 17:40:54;;;;;;;47.80;44.88;;;;;;;;;;4943001;28;20040;-94
2024/03/03 17:43:20;;;;;;;57.05;53.45;;;;;;;;;;5138867;23;20084;-94
2024/03/03 17:48:35;;;;;;;50.10;45.80;;;;;;;;;;5405382;23;20039;-94
2024/03/03 17:51:13;;;;;;;36.88;32.97;;;;;;;;;;4939403;29;20095;-94
2024/03/03 17:56:57;;;;;;;29.02;25.80;;;;;;;;;;4936680;29;20027;-94
2024/03/03 17:59:23;;;;;;;50.92;36.13;;;;;;;;;;4937593;29;20063;-93
2024/03/03 18:01:55;;;;;;;43.05;33.50;;;;;;;;;;4936755;29;20032;-95
2024/03/03 18:04:22;;;;;;;36.65;27.02;;;;;;;;;;4934840;29;20032;-95
2024/03/03 18:07:06;;;;;;;37.28;30.58;;;;;;;;;;4919862;29;20029;-94
2024/03/03 18:10:00;;;;;;;31.88;28.98;;;;;;;;;;5006214;23;20107;-95
2024/03/03 18:12:50;;;;;;;18.63;16.92;;;;;;;;;;5061848;23;20030;-93
2024/03/03 18:15:17;;;;;;;24.70;22.63;;;;;;;;;;4952215;29;20052;-95
2024/03/03 18:17:44;;;;;;;26.10;24.40;;;;;;;;;;4931989;29;20032;-95
2024/03/03 18:20:15;;;;;;;25.40;23.55;;;;;;;;;;4936318;29;20032;-95
2024/03/03 18:22:44;;;;;;;28.08;26.10;;;;;;;;;;4939107;29;20032;-95
2024/03/03 18:25:19;;;;;;;29.42;27.25;;;;;;;;;;4955432;29;20110;-95
2024/03/03 18:27:49;;;;;;;33.92;31.67;;;;;;;;;;4936899;29;20079;-96
2024/03/03 18:30:15;;;;;;;48.22;45.17;;;;;;;;;;4938136;29;20035;-93
2024/03/03 18:32:42;;;;;;;48.83;45.80;;;;;;;;;;4939360;29;20022;-95
2024/03/03 18:35:12;;;;;;;39.17;36.70;;;;;;;;;;4936977;29;20083;-96
2024/03/03 18:37:38;;;;;;;36.30;33.72;;;;;;;;;;4934626;29;20035;-95
2024/03/03 18:40:08;;;;;;;39.80;37.03;;;;;;;;;;4938191;28;20012;-92
2024/03/03 18:42:34;;;;;;;33.38;30.85;;;;;;;;;;4995830;23;20036;-92
2024/03/03 18:45:07;;;;;;;49.85;46.47;;;;;;;;;;4952856;29;20460;-94
2024/03/03 18:47:38;;;;;;;32.65;30.30;;;;;;;;;;4945530;29;20016;-95
2024/03/03 18:50:05;;;;;;;37.58;35.25;;;;;;;;;;4937750;23;20060;-95
2024/03/03 18:52:41;;;;;;;27.65;25.85;;;;;;;;;;4931482;29;20016;-93
2024/03/03 18:55:09;;;;;;;23.15;21.63;;;;;;;;;;4921063;29;20118;-94
2024/03/03 18:57:40;;;;;;;34.65;32.55;;;;;;;;;;4881249;29;20063;-95
2024/03/03 19:00:07;;;;;;;37.83;35.22;;;;;;;;;;4895775;29;20063;-95
2024/03/03 19:02:34;;;;;;;34.20;32.17;;;;;;;;;;4895667;29;20084;-94
2024/03/03 19:05:00;;;;;;;43.83;41.28;;;;;;;;;;4899501;29;20017;-94
2024/03/03 19:07:32;;;;;;;43.90;41.38;;;;;;;;;;4901380;29;20023;-95
2024/03/03 19:13:04;;;;;;;35.22;33.00;;;;;;;;;;4910499;29;20176;-93
2024/03/03 19:18:36;;;;;;;37.88;35.47;;;;;;;;;;4952880;23;20036;-93
2024/03/03 19:21:08;;;;;;;27.33;25.10;;;;;;;;;;4897395;29;20055;-95
2024/03/03 19:23:55;;;;;;;30.13;27.95;;;;;;;;;;4895993;29;20043;-94
2024/03/03 19:26:21;;;;;;;21.25;19.45;;;;;;;;;;4877387;29;20056;-94
2024/03/03 19:28:50;;;;;;;22.05;20.33;;;;;;;;;;4892495;29;20032;-95
2024/03/03 19:31:18;;;;;;;13.82;12.45;;;;;;;;;;4891735;29;20032;-94
2024/03/03 19:33:49;;;;;;;14.38;12.15;;;;;;;;;;4890772;29;20025;-94
2024/03/03 19:36:21;;;;;;;16.33;14.55;;;;;;;;;;4900995;29;20028;-95
2024/03/03 19:38:47;;;;;;;13.18;11.90;;;;;;;;;;4891534;29;20478;-95
2024/03/03 19:41:14;;;;;;;13.00;11.77;;;;;;;;;;4892095;29;20471;-95
2024/03/03 19:43:44;;;;;;;15.48;10.80;;;;;;;;;;4910329;29;20116;-94
2024/03/03 19:46:15;;;;;;;10.25;8.20;;;;;;;;;;4891164;29;20112;-94
2024/03/03 19:48:49;;;;;;;10.25;9.10;;;;;;;;;;4897811;29;20041;-95
2024/03/03 19:51:20;;;;;;;11.98;10.80;;;;;;;;;;4917148;29;20016;-95
2024/03/03 19:53:51;;;;;;;9.48;7.88;;;;;;;;;;4882064;29;20047;-96
2024/03/03 19:56:17;;;;;;;11.05;6.68;;;;;;;;;;4879063;29;20120;-94
2024/03/03 19:58:48;;;;;;;10.63;7.10;;;;;;;;;;4878936;29;20060;-95
2024/03/03 20:01:21;;;;;;;11.27;8.00;;;;;;;;;;4899163;29;20056;-95
2024/03/03 20:03:48;;;;;;;11.52;6.78;;;;;;;;;;4894626;29;20119;-94
2024/03/03 20:06:14;;;;;;;11.55;7.30;;;;;;;;;;4890097;29;20036;-94
2024/03/03 20:08:44;;;;;;;12.52;6.88;;;;;;;;;;4891969;29;20075;-95
2024/03/03 20:11:13;;;;;;;11.32;7.05;;;;;;;;;;4891748;29;20033;-94
2024/03/03 20:13:43;;;;;;;9.63;7.05;;;;;;;;;;4896317;29;20024;-94
2024/03/03 20:16:12;;;;;;;9.10;5.68;;;;;;;;;;4888436;29;20020;-95
2024/03/03 20:18:42;;;;;;;9.48;5.35;;;;;;;;;;4888430;29;20029;-94
2024/03/03 20:21:08;;;;;;;10.15;6.03;;;;;;;;;;4905238;29;20085;-93
2024/03/03 20:23:34;;;;;;;7.63;5.80;;;;;;;;;;4904549;29;20040;-93
2024/03/03 20:26:01;;;;;;;7.72;5.40;;;;;;;;;;4892385;29;20056;-93